createdAt,value
2018-12-06T00:00:54.233Z,0.00
2018-12-06T00:01:54.223Z,0.00
2018-12-06T00:02:54.213Z,0.00
2018-12-06T00:03:54.204Z,0.00
2018-12-06T00:04:54.192Z,0.00
2018-12-06T00:05:54.180Z,0.00
2018-12-06T00:06:54.169Z,0.00
2018-12-06T00:07:54.158Z,0.00
2018-12-06T00:08:54.151Z,0.00
2018-12-06T00:09:54.137Z,0.00
2018-12-06T00:10:54.133Z,0.00
2018-12-06T00:11:54.118Z,0.00
2018-12-06T00:12:54.107Z,0.00
2018-12-06T00:13:54.097Z,0.00
2018-12-06T00:14:54.084Z,0.00
2018-12-06T00:15:54.073Z,0.00
2018-12-06T00:16:54.063Z,0.00
2018-12-06T00:17:54.056Z,0.00
2018-12-06T00:18:54.043Z,0.00
2018-12-06T00:19:54.030Z,0.00
2018-12-06T00:20:54.020Z,0.00
2018-12-06T00:21:54.010Z,0.00
2018-12-06T00:22:54.000Z,0.00
2018-12-06T00:23:53.990Z,0.00
2018-12-06T00:24:53.981Z,0.00
2018-12-06T00:25:53.967Z,0.00
2018-12-06T00:26:53.956Z,0.00
2018-12-06T00:27:53.946Z,0.00
2018-12-06T00:28:53.936Z,0.00
2018-12-06T00:29:53.927Z,0.00
2018-12-06T00:30:53.918Z,0.00
2018-12-06T00:31:53.903Z,0.00
2018-12-06T00:32:53.895Z,0.00
2018-12-06T00:33:53.882Z,0.00
2018-12-06T00:34:53.872Z,0.00
2018-12-06T00:35:53.866Z,0.00
2018-12-06T00:36:53.856Z,0.00
2018-12-06T00:37:53.839Z,0.00
2018-12-06T00:38:53.828Z,0.00
2018-12-06T00:39:53.817Z,0.00
2018-12-06T00:40:53.807Z,0.00
2018-12-06T00:41:53.799Z,0.00
2018-12-06T00:42:53.786Z,0.00
2018-12-06T00:43:53.796Z,0.00
2018-12-06T00:44:53.840Z,0.00
2018-12-06T00:45:53.756Z,0.00
2018-12-06T00:46:53.745Z,0.00
2018-12-06T00:47:53.733Z,0.00
2018-12-06T00:48:53.722Z,0.00
2018-12-06T00:49:53.714Z,0.00
2018-12-06T00:50:53.700Z,0.00
2018-12-06T00:51:53.693Z,0.00
2018-12-06T00:52:53.682Z,0.00
2018-12-06T00:53:53.668Z,0.00
2018-12-06T00:54:53.660Z,0.00
2018-12-06T00:55:53.648Z,0.00
2018-12-06T00:56:53.637Z,0.00
2018-12-06T00:57:53.626Z,0.00
2018-12-06T00:58:53.618Z,0.00
2018-12-06T00:59:53.620Z,0.00
2018-12-06T01:00:53.596Z,0.00
2018-12-06T01:01:53.588Z,0.00
2018-12-06T01:02:53.573Z,0.00
2018-12-06T01:03:53.566Z,0.00
2018-12-06T01:04:53.552Z,0.00
2018-12-06T01:05:53.543Z,0.00
2018-12-06T01:06:53.533Z,0.00
2018-12-06T01:07:53.520Z,0.00
2018-12-06T01:08:53.510Z,0.00
2018-12-06T01:09:53.498Z,0.00
2018-12-06T01:10:53.492Z,0.00
2018-12-06T01:11:53.477Z,0.00
2018-12-06T01:12:53.467Z,0.00
2018-12-06T01:13:53.455Z,0.00
2018-12-06T01:14:53.445Z,0.00
2018-12-06T01:15:53.433Z,0.00
2018-12-06T01:16:53.427Z,0.00
2018-12-06T01:17:53.421Z,0.00
2018-12-06T01:18:53.401Z,0.00
2018-12-06T01:19:53.392Z,0.00
2018-12-06T01:20:53.382Z,0.00
2018-12-06T01:21:53.369Z,0.00
2018-12-06T01:22:53.365Z,0.00
2018-12-06T01:23:53.352Z,0.00
2018-12-06T01:24:53.337Z,0.00
2018-12-06T01:25:53.326Z,0.00
2018-12-06T01:26:53.317Z,0.00
2018-12-06T01:27:53.306Z,0.00
2018-12-06T01:28:53.296Z,0.00
2018-12-06T01:29:53.290Z,0.00
2018-12-06T01:30:53.277Z,0.00
2018-12-06T01:31:53.266Z,0.00
2018-12-06T01:32:53.252Z,0.00
2018-12-06T01:33:53.244Z,0.00
2018-12-06T01:34:53.232Z,0.00
2018-12-06T01:35:53.228Z,0.00
2018-12-06T01:36:53.211Z,0.00
2018-12-06T01:37:53.199Z,0.00
2018-12-06T01:38:53.209Z,0.00
2018-12-06T01:39:53.178Z,0.00
2018-12-06T01:40:53.166Z,0.00
2018-12-06T01:41:53.180Z,0.00
2018-12-06T01:42:53.149Z,0.00
2018-12-06T01:43:53.136Z,0.00
2018-12-06T01:44:53.125Z,0.00
2018-12-06T01:45:53.119Z,0.00
2018-12-06T01:46:53.104Z,0.00
2018-12-06T01:47:53.103Z,0.00
2018-12-06T01:48:53.084Z,0.00
2018-12-06T01:49:53.073Z,0.00
2018-12-06T01:50:53.061Z,0.00
2018-12-06T01:51:53.056Z,0.00
2018-12-06T01:52:53.043Z,0.00
2018-12-06T01:53:53.031Z,0.00
2018-12-06T01:54:53.027Z,0.00
2018-12-06T01:55:53.006Z,0.00
2018-12-06T01:56:52.996Z,0.00
2018-12-06T01:57:52.985Z,0.00
2018-12-06T01:58:52.975Z,0.00
2018-12-06T01:59:52.968Z,0.00
2018-12-06T02:00:52.955Z,0.00
2018-12-06T02:01:52.950Z,0.00
2018-12-06T02:02:52.932Z,0.00
2018-12-06T02:03:52.922Z,0.00
2018-12-06T02:04:52.911Z,0.00
2018-12-06T02:05:52.899Z,0.00
2018-12-06T02:06:52.890Z,0.00
2018-12-06T02:07:52.878Z,0.00
2018-12-06T02:08:52.869Z,0.00
2018-12-06T02:09:52.860Z,0.00
2018-12-06T02:10:52.848Z,0.00
2018-12-06T02:11:52.846Z,0.00
2018-12-06T02:12:52.914Z,0.00
2018-12-06T02:13:52.815Z,0.00
2018-12-06T02:14:52.805Z,0.00
2018-12-06T02:15:52.793Z,0.00
2018-12-06T02:16:52.785Z,0.00
2018-12-06T02:17:52.774Z,0.00
2018-12-06T02:18:52.762Z,0.00
2018-12-06T02:19:52.750Z,0.00
2018-12-06T02:20:52.745Z,0.00
2018-12-06T02:21:52.729Z,0.00
2018-12-06T02:22:52.721Z,0.00
2018-12-06T02:23:52.707Z,0.00
2018-12-06T02:24:52.697Z,0.00
2018-12-06T02:25:52.688Z,0.00
2018-12-06T02:26:52.684Z,0.00
2018-12-06T02:27:52.665Z,0.00
2018-12-06T02:28:52.655Z,0.00
2018-12-06T02:29:52.645Z,0.00
2018-12-06T02:30:52.634Z,0.00
2018-12-06T02:31:52.623Z,0.00
2018-12-06T02:32:52.613Z,0.00
2018-12-06T02:33:52.605Z,0.00
2018-12-06T02:34:52.620Z,0.00
2018-12-06T02:35:52.581Z,0.00
2018-12-06T02:36:52.573Z,0.00
2018-12-06T02:37:52.560Z,0.00
2018-12-06T02:38:52.551Z,0.00
2018-12-06T02:39:52.544Z,0.00
2018-12-06T02:40:52.530Z,0.00
2018-12-06T02:41:52.605Z,0.00
2018-12-06T02:42:52.505Z,0.00
2018-12-06T02:43:52.495Z,0.00
2018-12-06T02:44:52.484Z,0.00
2018-12-06T02:45:52.476Z,0.00
2018-12-06T02:46:52.463Z,0.00
2018-12-06T02:47:52.457Z,0.00
2018-12-06T02:48:52.442Z,0.00
2018-12-06T02:49:52.433Z,0.00
2018-12-06T02:50:52.421Z,0.00
2018-12-06T02:51:52.410Z,0.00
2018-12-06T02:52:52.399Z,0.00
2018-12-06T02:53:52.390Z,0.00
2018-12-06T02:54:52.380Z,0.00
2018-12-06T02:55:52.367Z,0.00
2018-12-06T02:56:52.356Z,0.00
2018-12-06T02:57:52.344Z,0.00
2018-12-06T02:58:52.335Z,0.00
2018-12-06T02:59:52.325Z,0.00
2018-12-06T03:00:52.315Z,0.00
2018-12-06T03:01:52.305Z,0.00
2018-12-06T03:02:52.293Z,0.00
2018-12-06T03:03:52.282Z,0.00
2018-12-06T03:04:52.277Z,0.00
2018-12-06T03:05:52.264Z,0.00
2018-12-06T03:06:52.251Z,0.00
2018-12-06T03:07:52.245Z,0.00
2018-12-06T03:08:52.230Z,0.00
2018-12-06T03:09:52.220Z,0.00
2018-12-06T03:10:52.207Z,0.00
2018-12-06T03:11:52.199Z,0.00
2018-12-06T03:12:52.186Z,0.00
2018-12-06T03:13:52.176Z,0.00
2018-12-06T03:14:52.165Z,0.00
2018-12-06T03:15:52.163Z,0.00
2018-12-06T03:16:52.145Z,0.00
2018-12-06T03:17:52.135Z,0.00
2018-12-06T03:18:52.123Z,0.00
2018-12-06T03:19:52.114Z,0.00
2018-12-06T03:20:52.103Z,0.00
2018-12-06T03:21:52.091Z,0.00
2018-12-06T03:22:52.079Z,0.00
2018-12-06T03:23:52.072Z,0.00
2018-12-06T03:24:52.058Z,0.00
2018-12-06T03:25:52.053Z,0.00
2018-12-06T03:26:52.043Z,0.00
2018-12-06T03:27:52.034Z,0.00
2018-12-06T03:28:52.016Z,0.00
2018-12-06T03:29:52.015Z,0.00
2018-12-06T03:30:51.997Z,0.00
2018-12-06T03:31:51.986Z,0.00
2018-12-06T03:32:51.980Z,0.00
2018-12-06T03:33:51.983Z,0.00
2018-12-06T03:34:51.951Z,0.00
2018-12-06T03:35:51.942Z,0.00
2018-12-06T03:36:51.934Z,0.00
2018-12-06T03:37:51.920Z,0.00
2018-12-06T03:38:51.910Z,0.00
2018-12-06T03:39:51.900Z,0.00
2018-12-06T03:40:51.894Z,0.00
2018-12-06T03:41:51.881Z,0.00
2018-12-06T03:42:51.868Z,0.00
2018-12-06T03:43:51.857Z,0.00
2018-12-06T03:44:51.853Z,0.00
2018-12-06T03:45:51.835Z,0.00
2018-12-06T03:46:51.824Z,0.00
2018-12-06T03:47:51.818Z,0.00
2018-12-06T03:48:51.806Z,0.00
2018-12-06T03:49:51.792Z,0.00
2018-12-06T03:50:51.787Z,0.00
2018-12-06T03:51:51.772Z,0.00
2018-12-06T03:52:51.764Z,0.00
2018-12-06T03:53:51.750Z,0.00
2018-12-06T03:54:51.739Z,0.00
2018-12-06T03:55:51.732Z,0.00
2018-12-06T03:56:51.718Z,0.00
2018-12-06T03:57:51.708Z,0.00
2018-12-06T03:58:51.697Z,0.00
2018-12-06T03:59:51.685Z,0.00
2018-12-06T04:00:51.677Z,0.00
2018-12-06T04:01:51.664Z,0.00
2018-12-06T04:02:51.656Z,0.00
2018-12-06T04:03:51.643Z,0.00
2018-12-06T04:04:51.634Z,0.00
2018-12-06T04:05:51.624Z,0.00
2018-12-06T04:06:51.611Z,0.00
2018-12-06T04:07:51.599Z,0.00
2018-12-06T04:08:51.596Z,0.00
2018-12-06T04:09:51.581Z,0.00
2018-12-06T04:10:51.571Z,0.00
2018-12-06T04:11:51.558Z,0.00
2018-12-06T04:12:51.552Z,0.00
2018-12-06T04:13:51.566Z,0.00
2018-12-06T04:14:51.531Z,0.00
2018-12-06T04:15:51.514Z,0.00
2018-12-06T04:16:51.504Z,0.00
2018-12-06T04:17:51.496Z,0.00
2018-12-06T04:18:51.484Z,0.00
2018-12-06T04:19:51.475Z,0.00
2018-12-06T04:20:51.468Z,0.00
2018-12-06T04:21:51.450Z,0.00
2018-12-06T04:22:51.441Z,0.00
2018-12-06T04:23:51.431Z,0.00
2018-12-06T04:24:51.424Z,0.00
2018-12-06T04:25:51.409Z,0.00
2018-12-06T04:26:51.401Z,0.00
2018-12-06T04:27:51.386Z,0.00
2018-12-06T04:28:51.377Z,0.00
2018-12-06T04:29:51.372Z,0.00
2018-12-06T04:30:51.355Z,0.00
2018-12-06T04:31:51.346Z,0.00
2018-12-06T04:32:51.347Z,0.00
2018-12-06T04:33:51.324Z,0.00
2018-12-06T04:34:51.313Z,0.00
2018-12-06T04:35:51.303Z,0.00
2018-12-06T04:36:51.292Z,0.00
2018-12-06T04:37:51.282Z,0.00
2018-12-06T04:38:51.283Z,0.00
2018-12-06T04:39:51.265Z,0.00
2018-12-06T04:40:51.250Z,0.00
2018-12-06T04:41:51.238Z,0.00
2018-12-06T04:42:51.230Z,0.00
2018-12-06T04:43:51.218Z,0.00
2018-12-06T04:44:51.206Z,0.00
2018-12-06T04:45:51.197Z,0.00
2018-12-06T04:46:51.185Z,0.00
2018-12-06T04:47:51.180Z,0.00
2018-12-06T04:48:51.167Z,0.00
2018-12-06T04:49:51.153Z,0.00
2018-12-06T04:50:51.143Z,0.00
2018-12-06T04:51:51.132Z,0.00
2018-12-06T04:52:51.124Z,0.00
2018-12-06T04:53:51.118Z,0.00
2018-12-06T04:54:51.100Z,0.00
2018-12-06T04:55:51.091Z,0.00
2018-12-06T04:56:51.078Z,0.00
2018-12-06T04:57:51.066Z,0.00
2018-12-06T04:58:51.057Z,0.00
2018-12-06T04:59:51.046Z,0.00
2018-12-06T05:00:51.042Z,0.00
2018-12-06T05:01:51.027Z,0.00
2018-12-06T05:02:51.014Z,0.00
2018-12-06T05:03:51.003Z,0.00
2018-12-06T05:04:50.996Z,0.00
2018-12-06T05:05:50.983Z,0.00
2018-12-06T05:06:50.974Z,0.00
2018-12-06T05:07:50.964Z,0.00
2018-12-06T05:08:50.950Z,0.00
2018-12-06T05:09:50.942Z,0.00
2018-12-06T05:10:50.944Z,0.00
2018-12-06T05:11:50.919Z,0.00
2018-12-06T05:12:50.908Z,0.00
2018-12-06T05:13:50.903Z,0.00
2018-12-06T05:14:50.885Z,0.00
2018-12-06T05:15:50.876Z,0.00
2018-12-06T05:16:50.867Z,0.00
2018-12-06T05:17:50.856Z,0.00
2018-12-06T05:18:50.843Z,0.00
2018-12-06T05:19:50.832Z,0.00
2018-12-06T05:20:50.829Z,0.00
2018-12-06T05:21:50.811Z,0.00
2018-12-06T05:22:50.800Z,0.00
2018-12-06T05:23:50.789Z,0.00
2018-12-06T05:24:50.778Z,0.00
2018-12-06T05:25:50.767Z,0.00
2018-12-06T05:26:50.758Z,0.00
2018-12-06T05:27:50.747Z,0.00
2018-12-06T05:28:50.737Z,0.00
2018-12-06T05:29:50.728Z,0.00
2018-12-06T05:30:50.714Z,0.00
2018-12-06T05:31:50.703Z,0.00
2018-12-06T05:32:50.695Z,0.00
2018-12-06T05:33:50.688Z,0.00
2018-12-06T05:34:50.672Z,0.00
2018-12-06T05:35:50.662Z,0.00
2018-12-06T05:36:50.650Z,0.00
2018-12-06T05:37:50.640Z,0.00
2018-12-06T05:38:50.629Z,0.00
2018-12-06T05:39:51.065Z,0.00
2018-12-06T05:40:50.608Z,0.00
2018-12-06T05:41:50.614Z,0.00
2018-12-06T05:42:50.588Z,0.00
2018-12-06T05:43:50.580Z,0.00
2018-12-06T05:44:50.565Z,0.00
2018-12-06T05:45:50.563Z,0.00
2018-12-06T05:46:50.543Z,0.00
2018-12-06T05:47:50.579Z,0.00
2018-12-06T05:48:50.524Z,0.00
2018-12-06T05:49:50.511Z,0.00
2018-12-06T05:50:50.502Z,0.00
2018-12-06T05:51:50.498Z,0.00
2018-12-06T05:52:50.497Z,0.00
2018-12-06T05:53:50.471Z,0.00
2018-12-06T05:54:50.458Z,0.00
2018-12-06T05:55:50.446Z,0.00
2018-12-06T05:56:50.437Z,0.00
2018-12-06T05:57:50.520Z,0.00
2018-12-06T05:58:50.414Z,0.00
2018-12-06T05:59:50.404Z,0.00
2018-12-06T06:00:50.395Z,0.00
2018-12-06T06:01:50.382Z,0.00
2018-12-06T06:02:50.372Z,0.00
2018-12-06T06:03:50.361Z,0.00
2018-12-06T06:04:50.352Z,0.00
2018-12-06T06:05:50.339Z,0.00
2018-12-06T06:06:50.328Z,0.00
2018-12-06T06:07:50.318Z,0.00
2018-12-06T06:08:50.310Z,0.00
2018-12-06T06:09:50.297Z,0.00
2018-12-06T06:10:50.286Z,0.00
2018-12-06T06:11:50.277Z,0.00
2018-12-06T06:12:50.266Z,0.00
2018-12-06T06:13:50.258Z,0.00
2018-12-06T06:14:50.249Z,0.00
2018-12-06T06:15:50.232Z,0.00
2018-12-06T06:16:50.224Z,0.00
2018-12-06T06:17:50.210Z,0.00
2018-12-06T06:18:50.203Z,0.00
2018-12-06T06:19:50.189Z,0.00
2018-12-06T06:20:50.179Z,0.00
2018-12-06T06:21:50.169Z,0.00
2018-12-06T06:22:50.158Z,0.00
2018-12-06T06:23:50.155Z,0.00
2018-12-06T06:24:50.136Z,0.00
2018-12-06T06:25:50.129Z,0.00
2018-12-06T06:26:50.193Z,0.00
2018-12-06T06:27:50.104Z,0.00
2018-12-06T06:28:50.094Z,4.00
2018-12-06T06:29:50.083Z,4.00
2018-12-06T06:30:50.077Z,4.00
2018-12-06T06:31:50.064Z,0.00
2018-12-06T06:32:50.050Z,0.00
2018-12-06T06:33:50.040Z,4.00
2018-12-06T06:34:50.039Z,4.00
2018-12-06T06:35:50.022Z,4.00
2018-12-06T06:36:50.010Z,4.00
2018-12-06T06:37:49.999Z,8.00
2018-12-06T06:38:49.991Z,4.00
2018-12-06T06:39:49.976Z,8.00
2018-12-06T06:40:49.966Z,8.00
2018-12-06T06:41:49.954Z,8.00
2018-12-06T06:42:49.943Z,12.00
2018-12-06T06:43:49.937Z,12.00
2018-12-06T06:44:49.924Z,16.00
2018-12-06T06:45:49.911Z,20.00
2018-12-06T06:46:49.903Z,20.00
2018-12-06T06:47:49.890Z,20.00
2018-12-06T06:48:49.883Z,24.00
2018-12-06T06:49:49.870Z,28.00
2018-12-06T06:50:49.861Z,32.00
2018-12-06T06:51:49.849Z,32.00
2018-12-06T06:52:50.513Z,40.00
2018-12-06T06:53:49.834Z,44.00
2018-12-06T06:54:49.819Z,52.00
2018-12-06T06:55:49.807Z,56.00
2018-12-06T06:56:49.794Z,64.00
2018-12-06T06:57:49.784Z,72.00
2018-12-06T06:58:49.773Z,84.00
2018-12-06T06:59:49.764Z,92.00
2018-12-06T07:00:49.752Z,104.00
2018-12-06T07:01:49.764Z,112.00
2018-12-06T07:02:49.731Z,120.00
2018-12-06T07:03:49.720Z,132.00
2018-12-06T07:04:49.709Z,140.00
2018-12-06T07:05:49.930Z,144.00
2018-12-06T07:06:49.693Z,148.00
2018-12-06T07:07:49.679Z,156.00
2018-12-06T07:08:49.668Z,164.00
2018-12-06T07:09:49.655Z,180.00
2018-12-06T07:10:49.652Z,200.00
2018-12-06T07:11:49.635Z,228.00
2018-12-06T07:12:49.626Z,256.00
2018-12-06T07:13:49.613Z,288.00
2018-12-06T07:14:49.606Z,316.00
2018-12-06T07:15:49.592Z,348.00
2018-12-06T07:16:49.581Z,384.00
2018-12-06T07:17:49.573Z,420.00
2018-12-06T07:18:49.563Z,464.00
2018-12-06T07:19:49.549Z,508.00
2018-12-06T07:20:49.541Z,552.00
2018-12-06T07:21:49.531Z,604.00
2018-12-06T07:22:49.516Z,656.00
2018-12-06T07:23:49.506Z,712.00
2018-12-06T07:24:49.499Z,768.00
2018-12-06T07:25:49.484Z,828.00
2018-12-06T07:26:49.478Z,888.00
2018-12-06T07:27:49.463Z,952.00
2018-12-06T07:28:49.452Z,1020.00
2018-12-06T07:29:49.445Z,1096.00
2018-12-06T07:30:49.435Z,1184.00
2018-12-06T07:31:49.420Z,1284.00
2018-12-06T07:32:49.416Z,1384.00
2018-12-06T07:33:49.398Z,1484.00
2018-12-06T07:34:49.392Z,1588.00
2018-12-06T07:35:49.376Z,1704.00
2018-12-06T07:36:49.367Z,1824.00
2018-12-06T07:37:49.356Z,1952.00
2018-12-06T07:38:49.344Z,2056.00
2018-12-06T07:39:49.337Z,2152.00
2018-12-06T07:40:49.325Z,2236.00
2018-12-06T07:41:49.313Z,2308.00
2018-12-06T07:42:49.301Z,2364.00
2018-12-06T07:43:49.293Z,2424.00
2018-12-06T07:44:49.281Z,2500.00
2018-12-06T07:45:49.270Z,2588.00
2018-12-06T07:46:49.258Z,2684.00
2018-12-06T07:47:49.247Z,2800.00
2018-12-06T07:48:49.242Z,2912.00
2018-12-06T07:49:49.226Z,3028.00
2018-12-06T07:50:49.216Z,3136.00
2018-12-06T07:51:49.205Z,3260.00
2018-12-06T07:52:49.208Z,3392.00
2018-12-06T07:53:49.184Z,3480.00
2018-12-06T07:54:49.173Z,3480.00
2018-12-06T07:55:49.165Z,3412.00
2018-12-06T07:56:49.152Z,3308.00
2018-12-06T07:57:49.141Z,3204.00
2018-12-06T07:58:49.135Z,3104.00
2018-12-06T07:59:49.122Z,3004.00
2018-12-06T08:00:49.109Z,2928.00
2018-12-06T08:01:49.105Z,2864.00
2018-12-06T08:02:49.087Z,2832.00
2018-12-06T08:03:49.076Z,2912.00
2018-12-06T08:04:49.066Z,2988.00
2018-12-06T08:05:49.056Z,3044.00
2018-12-06T08:06:49.046Z,3028.00
2018-12-06T08:07:49.033Z,2816.00
2018-12-06T08:08:49.026Z,2576.00
2018-12-06T08:09:49.013Z,2512.00
2018-12-06T08:10:49.002Z,2456.00
2018-12-06T08:11:48.990Z,2420.00
2018-12-06T08:12:48.981Z,2384.00
2018-12-06T08:13:48.969Z,2388.00
2018-12-06T08:14:48.959Z,2404.00
2018-12-06T08:15:48.948Z,2436.00
2018-12-06T08:16:48.938Z,2472.00
2018-12-06T08:17:48.926Z,2552.00
2018-12-06T08:18:48.918Z,2660.00
2018-12-06T08:19:48.906Z,2820.00
2018-12-06T08:20:48.895Z,3108.00
2018-12-06T08:21:48.886Z,3276.00
2018-12-06T08:22:48.873Z,3512.00
2018-12-06T08:23:48.865Z,3848.00
2018-12-06T08:24:48.855Z,3712.00
2018-12-06T08:25:48.845Z,3208.00
2018-12-06T08:26:48.830Z,2920.00
2018-12-06T08:27:48.826Z,2872.00
2018-12-06T08:28:48.813Z,2844.00
2018-12-06T08:29:48.802Z,2832.00
2018-12-06T08:30:48.825Z,2780.00
2018-12-06T08:31:48.776Z,2688.00
2018-12-06T08:32:48.765Z,2600.00
2018-12-06T08:33:48.754Z,2572.00
2018-12-06T08:34:48.749Z,2568.00
2018-12-06T08:35:48.742Z,2548.00
2018-12-06T08:36:48.724Z,2488.00
2018-12-06T08:37:48.712Z,2464.00
2018-12-06T08:38:48.702Z,2500.00
2018-12-06T08:39:48.694Z,2540.00
2018-12-06T08:40:48.681Z,2560.00
2018-12-06T08:41:48.671Z,2588.00
2018-12-06T08:42:48.658Z,2624.00
2018-12-06T08:43:48.648Z,2676.00
2018-12-06T08:44:48.640Z,2712.00
2018-12-06T08:45:48.627Z,2732.00
2018-12-06T08:46:48.617Z,2748.00
2018-12-06T08:47:48.606Z,2772.00
2018-12-06T08:48:48.619Z,2768.00
2018-12-06T08:49:48.582Z,2740.00
2018-12-06T08:50:48.576Z,2740.00
2018-12-06T08:51:48.563Z,2764.00
2018-12-06T08:52:48.554Z,2796.00
2018-12-06T08:53:48.540Z,2800.00
2018-12-06T08:54:48.530Z,2776.00
2018-12-06T08:55:48.519Z,2752.00
2018-12-06T08:56:48.510Z,2724.00
2018-12-06T08:57:48.496Z,2636.00
2018-12-06T08:58:49.253Z,2548.00
2018-12-06T08:59:48.481Z,2496.00
2018-12-06T09:00:48.463Z,2460.00
2018-12-06T09:01:48.455Z,2460.00
2018-12-06T09:02:48.444Z,2492.00
2018-12-06T09:03:48.434Z,2560.00
2018-12-06T09:04:48.423Z,2668.00
2018-12-06T09:05:48.413Z,2820.00
2018-12-06T09:06:48.400Z,2948.00
2018-12-06T09:07:48.394Z,3020.00
2018-12-06T09:08:48.379Z,3020.00
2018-12-06T09:09:48.368Z,2944.00
2018-12-06T09:10:51.678Z,2816.00
2018-12-06T09:11:48.347Z,2636.00
2018-12-06T09:12:48.351Z,2428.00
2018-12-06T09:13:48.327Z,2244.00
2018-12-06T09:14:48.391Z,2124.00
2018-12-06T09:15:48.304Z,2112.00
2018-12-06T09:16:48.295Z,2188.00
2018-12-06T09:17:48.282Z,2288.00
2018-12-06T09:18:48.275Z,2380.00
2018-12-06T09:19:48.261Z,2456.00
2018-12-06T09:20:48.249Z,2508.00
2018-12-06T09:21:48.239Z,2556.00
2018-12-06T09:22:48.229Z,2548.00
2018-12-06T09:23:48.219Z,2484.00
2018-12-06T09:24:48.214Z,2408.00
2018-12-06T09:25:48.197Z,2320.00
2018-12-06T09:26:48.187Z,2252.00
2018-12-06T09:27:48.175Z,2236.00
2018-12-06T09:28:48.165Z,2208.00
2018-12-06T09:29:48.153Z,2156.00
2018-12-06T09:30:48.144Z,2076.00
2018-12-06T09:31:48.133Z,1956.00
2018-12-06T09:32:48.121Z,1844.00
2018-12-06T09:33:48.114Z,1788.00
2018-12-06T09:34:48.101Z,1780.00
2018-12-06T09:35:48.089Z,1772.00
2018-12-06T09:36:48.088Z,1792.00
2018-12-06T09:37:48.073Z,1820.00
2018-12-06T09:38:48.061Z,1832.00
2018-12-06T09:39:48.048Z,1848.00
2018-12-06T09:40:48.035Z,1868.00
2018-12-06T09:41:48.024Z,1868.00
2018-12-06T09:42:48.019Z,1848.00
2018-12-06T09:43:48.003Z,1856.00
2018-12-06T09:44:47.993Z,1884.00
2018-12-06T09:45:47.982Z,1912.00
2018-12-06T09:46:47.971Z,1916.00
2018-12-06T09:47:47.960Z,1892.00
2018-12-06T09:48:47.953Z,1836.00
2018-12-06T09:49:47.943Z,1768.00
2018-12-06T09:50:47.939Z,1708.00
2018-12-06T09:51:47.918Z,1636.00
2018-12-06T09:52:47.906Z,1568.00
2018-12-06T09:53:47.900Z,1520.00
2018-12-06T09:54:47.885Z,1476.00
2018-12-06T09:55:47.875Z,1428.00
2018-12-06T09:56:47.873Z,1380.00
2018-12-06T09:57:47.854Z,1360.00
2018-12-06T09:58:47.846Z,1364.00
2018-12-06T09:59:47.836Z,1408.00
2018-12-06T10:00:47.823Z,1496.00
2018-12-06T10:01:47.811Z,1592.00
2018-12-06T10:02:47.800Z,1652.00
2018-12-06T10:03:47.792Z,1656.00
2018-12-06T10:04:47.778Z,1644.00
2018-12-06T10:05:47.767Z,1636.00
2018-12-06T10:06:47.761Z,1668.00
2018-12-06T10:07:47.747Z,1696.00
2018-12-06T10:08:47.735Z,1724.00
2018-12-06T10:09:47.802Z,1752.00
2018-12-06T10:10:47.715Z,1720.00
2018-12-06T10:11:47.704Z,1660.00
2018-12-06T10:12:47.691Z,1600.00
2018-12-06T10:13:47.685Z,1584.00
2018-12-06T10:14:47.671Z,1632.00
2018-12-06T10:15:47.660Z,1764.00
2018-12-06T10:16:47.649Z,1936.00
2018-12-06T10:17:47.641Z,2056.00
2018-12-06T10:18:47.632Z,2080.00
2018-12-06T10:19:47.617Z,2028.00
2018-12-06T10:20:47.608Z,2044.00
2018-12-06T10:21:47.595Z,2128.00
2018-12-06T10:22:47.585Z,2156.00
2018-12-06T10:23:47.580Z,2128.00
2018-12-06T10:24:47.564Z,2124.00
2018-12-06T10:25:47.554Z,2132.00
2018-12-06T10:26:47.540Z,2152.00
2018-12-06T10:27:47.560Z,2160.00
2018-12-06T10:28:47.521Z,2172.00
2018-12-06T10:29:47.510Z,2096.00
2018-12-06T10:30:47.550Z,1964.00
2018-12-06T10:31:47.487Z,1856.00
2018-12-06T10:32:47.479Z,1736.00
2018-12-06T10:33:47.467Z,1600.00
2018-12-06T10:34:53.392Z,1524.00
2018-12-06T10:35:48.444Z,1488.00
2018-12-06T10:36:47.434Z,1424.00
2018-12-06T10:37:47.424Z,1360.00
2018-12-06T10:38:47.413Z,1336.00
2018-12-06T10:39:47.403Z,1316.00
2018-12-06T10:40:47.391Z,1284.00
2018-12-06T10:41:47.383Z,1252.00
2018-12-06T10:42:47.372Z,1260.00
2018-12-06T10:43:47.359Z,1300.00
2018-12-06T10:44:47.352Z,1336.00
2018-12-06T10:45:47.339Z,1372.00
2018-12-06T10:46:47.329Z,1372.00
2018-12-06T10:47:47.317Z,1336.00
2018-12-06T10:48:47.312Z,1300.00
2018-12-06T10:49:47.295Z,1252.00
2018-12-06T10:50:47.284Z,1232.00
2018-12-06T10:51:47.273Z,1260.00
2018-12-06T10:52:47.263Z,1368.00
2018-12-06T10:53:47.255Z,1504.00
2018-12-06T10:54:47.241Z,1604.00
2018-12-06T10:55:47.233Z,1692.00
2018-12-06T10:56:47.230Z,1804.00
2018-12-06T10:57:47.209Z,1904.00
2018-12-06T10:58:47.198Z,1984.00
2018-12-06T10:59:47.189Z,2060.00
2018-12-06T11:00:47.186Z,2092.00
2018-12-06T11:01:47.167Z,2120.00
2018-12-06T11:02:47.160Z,2168.00
2018-12-06T11:03:47.146Z,2296.00
2018-12-06T11:04:47.136Z,2488.00
2018-12-06T11:05:47.125Z,2648.00
2018-12-06T11:06:47.113Z,2760.00
2018-12-06T11:07:47.102Z,2848.00
2018-12-06T11:08:47.096Z,2984.00
2018-12-06T11:09:47.080Z,3128.00
2018-12-06T11:10:47.071Z,3196.00
2018-12-06T11:11:47.058Z,3140.00
2018-12-06T11:12:47.049Z,3156.00
2018-12-06T11:13:47.040Z,3240.00
2018-12-06T11:14:47.028Z,3324.00
2018-12-06T11:15:47.016Z,3412.00
2018-12-06T11:16:47.007Z,3304.00
2018-12-06T11:17:46.995Z,3088.00
2018-12-06T11:18:46.986Z,2808.00
2018-12-06T11:19:46.973Z,2604.00
2018-12-06T11:20:46.962Z,2592.00
2018-12-06T11:21:46.953Z,2656.00
2018-12-06T11:22:46.941Z,2836.00
2018-12-06T11:23:47.733Z,2904.00
2018-12-06T11:24:46.920Z,2880.00
2018-12-06T11:25:46.908Z,2864.00
2018-12-06T11:26:46.897Z,2752.00
2018-12-06T11:27:46.889Z,2784.00
2018-12-06T11:28:46.879Z,2880.00
2018-12-06T11:29:46.867Z,3028.00
2018-12-06T11:30:46.858Z,3304.00
2018-12-06T11:31:46.847Z,3504.00
2018-12-06T11:32:46.836Z,3492.00
2018-12-06T11:33:46.824Z,3560.00
2018-12-06T11:34:46.813Z,3740.00
2018-12-06T11:35:46.801Z,3828.00
2018-12-06T11:36:46.792Z,3988.00
2018-12-06T11:37:46.780Z,4044.00
2018-12-06T11:38:46.767Z,3860.00
2018-12-06T11:39:46.759Z,3768.00
2018-12-06T11:40:46.748Z,3484.00
2018-12-06T11:41:46.736Z,3200.00
2018-12-06T11:42:46.725Z,2928.00
2018-12-06T11:43:46.718Z,2768.00
2018-12-06T11:44:46.702Z,2708.00
2018-12-06T11:45:46.693Z,2696.00
2018-12-06T11:46:46.773Z,2640.00
2018-12-06T11:47:46.669Z,2580.00
2018-12-06T11:48:46.661Z,2728.00
2018-12-06T11:49:46.650Z,2828.00
2018-12-06T11:50:46.641Z,2892.00
2018-12-06T11:51:46.627Z,3000.00
2018-12-06T11:52:46.617Z,3044.00
2018-12-06T11:53:46.605Z,3032.00
2018-12-06T11:54:46.593Z,2936.00
2018-12-06T11:55:46.585Z,2632.00
2018-12-06T11:56:46.577Z,2488.00
2018-12-06T11:57:46.563Z,2492.00
2018-12-06T11:58:46.550Z,2532.00
2018-12-06T11:59:46.541Z,2500.00
2018-12-06T12:00:46.530Z,2400.00
2018-12-06T12:01:46.517Z,2344.00
2018-12-06T12:02:46.510Z,2344.00
2018-12-06T12:03:46.497Z,2328.00
2018-12-06T12:04:46.486Z,2296.00
2018-12-06T12:05:46.475Z,2304.00
2018-12-06T12:06:46.464Z,2352.00
2018-12-06T12:07:46.454Z,2480.00
2018-12-06T12:08:46.444Z,2592.00
2018-12-06T12:09:46.437Z,2396.00
2018-12-06T12:10:46.426Z,2408.00
2018-12-06T12:11:46.410Z,2496.00
2018-12-06T12:12:46.399Z,2404.00
2018-12-06T12:13:46.400Z,2252.00
2018-12-06T12:14:46.378Z,2152.00
2018-12-06T12:15:46.368Z,1964.00
2018-12-06T12:16:46.356Z,1700.00
2018-12-06T12:17:46.348Z,1540.00
2018-12-06T12:18:46.333Z,1464.00
2018-12-06T12:19:46.323Z,1428.00
2018-12-06T12:20:46.312Z,1460.00
2018-12-06T12:21:46.303Z,1464.00
2018-12-06T12:22:46.290Z,1456.00
2018-12-06T12:23:46.281Z,1488.00
2018-12-06T12:24:46.269Z,1532.00
2018-12-06T12:25:47.888Z,1568.00
2018-12-06T12:26:46.248Z,1608.00
2018-12-06T12:27:46.238Z,1612.00
2018-12-06T12:28:46.226Z,1592.00
2018-12-06T12:29:46.216Z,1604.00
2018-12-06T12:30:46.203Z,1604.00
2018-12-06T12:31:46.195Z,1616.00
2018-12-06T12:32:46.184Z,1704.00
2018-12-06T12:33:46.172Z,1956.00
2018-12-06T12:34:46.161Z,2248.00
2018-12-06T12:35:46.151Z,2300.00
2018-12-06T12:36:46.141Z,2236.00
2018-12-06T12:37:46.129Z,2172.00
2018-12-06T12:38:46.124Z,2068.00
2018-12-06T12:39:46.109Z,2020.00
2018-12-06T12:40:46.096Z,2032.00
2018-12-06T12:41:46.088Z,2036.00
2018-12-06T12:42:46.075Z,1948.00
2018-12-06T12:43:46.064Z,1768.00
2018-12-06T12:44:46.059Z,1660.00